Time;durP1;ratioP1;P1;durP2;ratioP2;P2;SDS_P1;SDS_P2;PMS_P1;PMS_P2;Temp;Humidity;BMP_temperature;BMP_pressure;BME280_temperature;BME280_humidity;BME280_pressure;Samples;Min_cycle;Max_cycle;Signal;HPM_P1;HPM_P2
2022/08/08 00:02:09;;;;;;;5.72;2.72;;;14.40;99.90;;;;;;5065277;28;20063;-81
2022/08/08 00:05:00;;;;;;;7.30;2.95;;;14.40;99.90;;;;;;5065606;28;20119;-82
2022/08/08 00:07:36;;;;;;;7.13;3.03;;;14.40;99.90;;;;;;5057686;28;20083;-81
2022/08/08 00:10:21;;;;;;;7.53;3.30;;;14.20;99.90;;;;;;5046666;28;20472;-81
2022/08/08 00:12:56;;;;;;;6.97;3.35;;;14.20;99.90;;;;;;5057176;28;20040;-81
2022/08/08 00:15:27;;;;;;;4.03;3.05;;;14.30;99.90;;;;;;5064992;28;20040;-81
2022/08/08 00:18:05;;;;;;;4.72;2.58;;;14.20;99.90;;;;;;5063261;28;20090;-81
2022/08/08 00:21:04;;;;;;;4.32;2.95;;;14.10;99.90;;;;;;5065538;28;20075;-80
2022/08/08 00:23:38;;;;;;;4.45;3.10;;;14.10;99.90;;;;;;5063143;28;20135;-81
2022/08/08 00:26:07;;;;;;;7.57;2.55;;;14.00;99.90;;;;;;5062272;28;20059;-81
2022/08/08 00:28:39;;;;;;;6.25;2.75;;;14.00;99.90;;;;;;5065799;28;20094;-81
2022/08/08 00:31:12;;;;;;;3.85;2.42;;;14.00;99.90;;;;;;5063584;28;20056;-81
2022/08/08 00:33:47;;;;;;;6.38;3.08;;;14.00;99.90;;;;;;5064808;28;20121;-82
2022/08/08 00:36:26;;;;;;;7.30;3.00;;;13.90;99.90;;;;;;5062430;28;20045;-81
2022/08/08 00:39:12;;;;;;;4.15;2.60;;;13.90;99.90;;;;;;5065706;28;20036;-80
2022/08/08 00:42:13;;;;;;;5.00;2.85;;;13.90;99.90;;;;;;5048812;28;20431;-81
2022/08/08 00:44:58;;;;;;;3.28;1.92;;;13.90;99.90;;;;;;5065096;28;20083;-81
2022/08/08 00:47:42;;;;;;;2.85;1.92;;;13.80;99.90;;;;;;5063868;28;20468;-80
2022/08/08 00:50:59;;;;;;;5.80;2.40;;;13.90;99.90;;;;;;5062461;28;20056;-80
2022/08/08 00:54:02;;;;;;;3.78;2.45;;;13.90;99.90;;;;;;5065012;28;20063;-80
2022/08/08 00:56:34;;;;;;;5.72;1.85;;;13.80;99.90;;;;;;5038875;28;20036;-81
2022/08/08 00:59:18;;;;;;;5.35;2.17;;;13.70;99.90;;;;;;5059587;28;20048;-81
2022/08/08 01:02:03;;;;;;;2.85;2.47;;;13.70;99.90;;;;;;5061814;28;20043;-81
2022/08/08 01:05:07;;;;;;;3.63;2.33;;;13.70;99.90;;;;;;5068037;28;20052;-80
2022/08/08 01:08:25;;;;;;;3.25;2.38;;;13.70;99.90;;;;;;5065048;28;20055;-81
2022/08/08 01:11:18;;;;;;;3.10;2.33;;;13.60;99.90;;;;;;5028274;28;20056;-81
2022/08/08 01:13:56;;;;;;;3.47;2.38;;;13.50;99.90;;;;;;5066500;28;20040;-80
2022/08/08 01:16:59;;;;;;;3.90;2.60;;;13.30;99.90;;;;;;5061682;28;20037;-82
2022/08/08 01:20:02;;;;;;;6.30;2.40;;;13.40;99.90;;;;;;5079983;28;20494;-81
2022/08/08 01:22:36;;;;;;;2.95;2.38;;;13.40;99.90;;;;;;5052648;28;20458;-82
2022/08/08 01:25:29;;;;;;;2.72;2.53;;;13.40;99.90;;;;;;5068095;28;20102;-81
2022/08/08 01:28:00;;;;;;;4.40;3.20;;;13.50;99.90;;;;;;5067131;28;20391;-80
2022/08/08 01:30:50;;;;;;;5.13;2.45;;;13.50;99.90;;;;;;5066343;28;20419;-80
2022/08/08 01:33:16;;;;;;;;;;;13.40;99.90;;;;;;5069309;28;20068;-81
2022/08/08 01:36:10;;;;;;;5.82;2.47;;;13.40;99.90;;;;;;5066840;28;19951;-81
2022/08/08 01:38:53;;;;;;;6.50;3.20;;;13.40;99.90;;;;;;5059471;28;20048;-81
2022/08/08 01:41:31;;;;;;;6.20;2.00;;;13.30;99.90;;;;;;5073113;28;20041;-81
2022/08/08 01:44:21;;;;;;;4.75;1.90;;;13.40;99.90;;;;;;5077041;28;20491;-78
2022/08/08 01:46:50;;;;;;;2.65;1.77;;;13.40;99.90;;;;;;5058818;28;20082;-81
2022/08/08 01:49:57;;;;;;;3.03;2.13;;;13.30;99.90;;;;;;5065238;28;20175;-80
2022/08/08 01:52:41;;;;;;;1.90;1.48;;;13.20;99.90;;;;;;5067843;28;20049;-80
2022/08/08 01:55:27;;;;;;;7.95;2.65;;;13.40;99.90;;;;;;5068273;28;20044;-80
2022/08/08 01:58:01;;;;;;;3.78;2.97;;;13.30;99.90;;;;;;5064989;28;20036;-81
2022/08/08 02:01:03;;;;;;;6.05;2.15;;;13.30;99.90;;;;;;5067567;28;20490;-80
2022/08/08 02:04:06;;;;;;;3.67;2.30;;;13.30;99.90;;;;;;5067017;28;20040;-81
2022/08/08 02:06:48;;;;;;;3.53;2.17;;;13.30;99.90;;;;;;5064833;28;20040;-81
2022/08/08 02:09:52;;;;;;;4.03;3.25;;;13.30;99.90;;;;;;5067552;28;20037;-82
2022/08/08 02:12:24;;;;;;;3.55;2.00;;;13.20;99.90;;;;;;5064474;28;20040;-81
2022/08/08 02:15:28;;;;;;;2.92;1.90;;;13.30;99.90;;;;;;5067103;28;20075;-79
2022/08/08 02:18:32;;;;;;;3.47;2.15;;;13.20;99.90;;;;;;5065083;28;20052;-80
2022/08/08 02:24:19;;;;;;;5.15;2.75;;;13.10;99.90;;;;;;5065950;28;20556;-81
2022/08/08 02:26:48;;;;;;;6.00;2.95;;;13.00;99.90;;;;;;5066375;28;20487;-80
2022/08/08 02:29:26;;;;;;;4.75;2.60;;;13.10;99.90;;;;;;5067558;28;20048;-80
2022/08/08 02:32:15;;;;;;;4.00;3.22;;;13.00;99.90;;;;;;5066650;28;20048;-81
2022/08/08 02:34:53;;;;;;;3.55;2.95;;;13.00;99.90;;;;;;5066337;28;20165;-81
2022/08/08 02:37:18;;;;;;;7.28;3.28;;;13.00;99.90;;;;;;5058851;28;20040;-72
2022/08/08 02:39:44;;;;;;;3.75;2.75;;;12.90;99.90;;;;;;5065971;28;20040;-80
2022/08/08 02:42:45;;;;;;;4.13;3.63;;;12.90;99.90;;;;;;5067983;28;20060;-81
2022/08/08 02:45:23;;;;;;;4.97;3.17;;;12.90;99.90;;;;;;5063973;28;20037;-80
2022/08/08 02:48:33;;;;;;;6.60;3.17;;;12.90;99.90;;;;;;5051810;28;20080;-80
2022/08/08 02:51:37;;;;;;;5.95;2.63;;;12.90;99.90;;;;;;5063856;28;20126;-80
2022/08/08 02:54:30;;;;;;;5.28;3.38;;;12.90;99.90;;;;;;5030725;28;20156;-79
2022/08/08 02:57:26;;;;;;;3.97;3.10;;;12.90;99.90;;;;;;5057820;28;20102;-78
2022/08/08 03:00:17;;;;;;;4.82;3.28;;;12.80;99.90;;;;;;5065870;28;20396;-81
2022/08/08 03:03:01;;;;;;;3.65;3.20;;;12.90;99.90;;;;;;5062402;28;20049;-81
2022/08/08 03:06:04;;;;;;;13.48;4.82;;;12.80;99.90;;;;;;5066823;28;20041;-81
2022/08/08 03:09:11;;;;;;;5.32;3.08;;;12.80;99.90;;;;;;5079881;28;20044;-79
2022/08/08 03:12:03;;;;;;;4.13;2.70;;;12.80;99.90;;;;;;5059323;28;20445;-80
2022/08/08 03:14:46;;;;;;;4.72;3.78;;;12.90;99.90;;;;;;5062809;28;20040;-80
2022/08/08 03:17:19;;;;;;;5.72;3.22;;;12.80;99.90;;;;;;5063611;28;20041;-80
2022/08/08 03:20:01;;;;;;;5.45;2.55;;;12.80;99.90;;;;;;5064094;28;20048;-80
2022/08/08 03:22:27;;;;;;;24.40;4.78;;;12.80;99.90;;;;;;5066900;28;20048;-81
2022/08/08 03:24:53;;;;;;;7.28;3.10;;;12.80;99.90;;;;;;5066558;28;20058;-80
2022/08/08 03:27:26;;;;;;;4.47;3.47;;;12.80;99.90;;;;;;5063965;28;20127;-74
2022/08/08 03:30:02;;;;;;;5.18;3.08;;;12.90;99.90;;;;;;5051875;28;20090;-81
2022/08/08 03:35:12;;;;;;;5.38;3.05;;;13.00;99.90;;;;;;5063511;28;20048;-80
2022/08/08 03:37:37;;;;;;;6.30;3.30;;;13.20;99.90;;;;;;5062025;28;20475;-81
2022/08/08 03:40:04;;;;;;;12.77;4.15;;;13.10;99.90;;;;;;5066138;28;20368;-81
2022/08/08 03:42:31;;;;;;;4.70;3.08;;;13.20;99.90;;;;;;5064810;28;20154;-80
2022/08/08 03:44:57;;;;;;;8.88;4.53;;;13.30;99.90;;;;;;5058571;28;20059;-79
2022/08/08 03:47:23;;;;;;;4.40;2.63;;;13.30;99.90;;;;;;5058830;28;20291;-80
2022/08/08 03:49:49;;;;;;;4.25;3.17;;;13.30;99.90;;;;;;5066343;28;20048;-70
2022/08/08 03:52:15;;;;;;;4.95;2.97;;;13.30;99.90;;;;;;5065614;28;20047;-81
2022/08/08 03:54:45;;;;;;;7.70;2.95;;;13.30;99.90;;;;;;5065930;28;20044;-83
2022/08/08 03:57:12;;;;;;;5.25;3.53;;;13.30;99.90;;;;;;5063704;28;20040;-81
2022/08/08 03:59:38;;;;;;;9.82;4.13;;;13.30;99.90;;;;;;5065169;28;20037;-79
2022/08/08 04:02:15;;;;;;;3.67;2.97;;;13.30;99.90;;;;;;5064674;28;20129;-81
2022/08/08 04:04:41;;;;;;;4.40;2.88;;;13.30;99.90;;;;;;5065684;28;20056;-81
2022/08/08 04:07:07;;;;;;;5.30;3.60;;;13.40;99.90;;;;;;5066338;28;20040;-81
2022/08/08 04:09:32;;;;;;;11.45;3.53;;;13.30;99.90;;;;;;5064474;28;20440;-79
2022/08/08 04:12:02;;;;;;;5.57;3.88;;;13.40;99.90;;;;;;5067414;28;20087;-79
2022/08/08 04:14:28;;;;;;;5.17;3.83;;;13.40;99.90;;;;;;5066333;28;20044;-81
2022/08/08 04:16:54;;;;;;;6.75;3.70;;;13.30;99.90;;;;;;5065277;28;20044;-81
2022/08/08 04:19:20;;;;;;;6.72;3.70;;;13.30;99.90;;;;;;5068464;28;20044;-80
2022/08/08 04:21:46;;;;;;;9.88;4.00;;;13.50;99.90;;;;;;5057767;28;20048;-80
2022/08/08 04:24:11;;;;;;;4.80;3.85;;;13.40;99.90;;;;;;5065077;28;20233;-81
2022/08/08 04:26:37;;;;;;;5.63;3.33;;;13.40;99.90;;;;;;5072301;28;20037;-80
2022/08/08 04:29:03;;;;;;;5.55;3.90;;;13.40;99.90;;;;;;5073260;28;20043;-80
2022/08/08 04:31:29;;;;;;;4.55;4.15;;;13.50;99.90;;;;;;5063478;28;20538;-81
2022/08/08 04:33:55;;;;;;;6.65;3.72;;;13.50;99.90;;;;;;5061790;28;20055;-80
2022/08/08 04:36:20;;;;;;;5.97;3.95;;;13.60;99.90;;;;;;5064811;28;20375;-79
2022/08/08 04:38:46;;;;;;;4.28;3.50;;;13.60;99.90;;;;;;5060453;28;20430;-81
2022/08/08 04:41:11;;;;;;;6.00;4.05;;;13.60;99.90;;;;;;5070718;28;20044;-81
2022/08/08 04:43:37;;;;;;;6.90;5.18;;;13.60;99.90;;;;;;5066135;28;20515;-80
2022/08/08 04:46:04;;;;;;;6.72;4.22;;;13.60;99.90;;;;;;5064753;28;20049;-79
2022/08/08 04:48:30;;;;;;;6.90;4.32;;;13.60;99.90;;;;;;5060835;28;20437;-79
2022/08/08 04:50:56;;;;;;;6.13;4.85;;;13.60;99.90;;;;;;5069731;28;20234;-80
2022/08/08 04:53:21;;;;;;;8.90;4.35;;;13.60;99.90;;;;;;5065569;28;20128;-81
2022/08/08 04:55:47;;;;;;;9.32;5.22;;;13.70;99.90;;;;;;5060302;28;20491;-79
2022/08/08 04:58:14;;;;;;;8.32;4.28;;;13.60;99.90;;;;;;5064782;28;20037;-79
2022/08/08 05:00:40;;;;;;;5.50;4.28;;;13.80;99.90;;;;;;5069130;28;20071;-81
2022/08/08 05:03:06;;;;;;;8.00;4.55;;;13.70;99.90;;;;;;5066994;28;20120;-78
2022/08/08 05:05:32;;;;;;;10.55;4.43;;;13.70;99.90;;;;;;5066872;28;20123;-80
2022/08/08 05:07:58;;;;;;;6.90;4.38;;;13.70;99.90;;;;;;5064934;28;20044;-79
2022/08/08 05:10:28;;;;;;;6.43;4.45;;;13.70;99.90;;;;;;5068807;28;20052;-79
2022/08/08 05:12:54;;;;;;;7.63;4.88;;;13.80;99.90;;;;;;5057712;28;20118;-80
2022/08/08 05:15:20;;;;;;;8.00;3.72;;;13.80;99.90;;;;;;5060648;28;20140;-79
2022/08/08 05:17:46;;;;;;;4.30;3.90;;;13.80;99.90;;;;;;5066916;28;20551;-79
2022/08/08 05:20:11;;;;;;;5.28;4.78;;;13.80;99.90;;;;;;5068788;28;20052;-79
2022/08/08 05:22:37;;;;;;;7.63;4.43;;;13.80;99.90;;;;;;5066429;28;20040;-79
2022/08/08 05:25:04;;;;;;;9.73;5.20;;;13.90;99.90;;;;;;5065070;28;20130;-79
2022/08/08 05:27:30;;;;;;;10.48;4.57;;;14.00;99.90;;;;;;5065818;28;20040;-79
2022/08/08 05:29:55;;;;;;;7.72;4.57;;;14.10;99.90;;;;;;5062787;28;20397;-80
2022/08/08 05:32:21;;;;;;;8.52;4.68;;;14.10;99.90;;;;;;5067743;28;20083;-79
2022/08/08 05:34:49;;;;;;;9.75;6.00;;;14.20;99.90;;;;;;5065477;28;20041;-80
2022/08/08 05:37:18;;;;;;;11.18;5.90;;;14.20;99.90;;;;;;5060618;28;20040;-80
2022/08/08 05:39:55;;;;;;;5.05;4.45;;;14.20;99.90;;;;;;5067418;28;20611;-79
2022/08/08 05:42:41;;;;;;;11.73;5.90;;;14.10;99.90;;;;;;5067501;28;20407;-80
2022/08/08 05:45:08;;;;;;;10.88;6.43;;;14.20;99.90;;;;;;5065284;28;20044;-78
2022/08/08 05:47:36;;;;;;;7.07;4.93;;;14.20;99.90;;;;;;5060396;28;20049;-79
2022/08/08 05:50:06;;;;;;;6.35;4.90;;;14.40;99.90;;;;;;5062646;28;20110;-80
2022/08/08 05:52:36;;;;;;;19.80;5.75;;;14.30;99.90;;;;;;5067285;28;20068;-80
2022/08/08 05:55:05;;;;;;;;;;;14.40;99.90;;;;;;5067744;28;20044;-79
2022/08/08 05:57:34;;;;;;;9.50;5.32;;;14.50;99.90;;;;;;5065900;28;19920;-80
2022/08/08 06:00:07;;;;;;;5.15;4.00;;;14.50;99.90;;;;;;5083227;28;20041;-79
2022/08/08 06:05:20;;;;;;;7.65;4.85;;;14.60;99.90;;;;;;5065360;28;20066;-80
2022/08/08 06:07:48;;;;;;;19.38;6.78;;;14.50;99.90;;;;;;5062422;28;20049;-81
2022/08/08 06:10:14;;;;;;;7.03;5.00;;;14.60;99.90;;;;;;5063683;28;20054;-81
2022/08/08 06:12:41;;;;;;;7.00;5.20;;;14.60;99.90;;;;;;5066863;28;20044;-81
2022/08/08 06:15:09;;;;;;;11.40;5.28;;;14.50;99.90;;;;;;5066580;28;20037;-81
2022/08/08 06:17:37;;;;;;;9.18;5.18;;;14.50;99.90;;;;;;5064748;28;20041;-82
2022/08/08 06:20:05;;;;;;;7.90;5.28;;;14.70;99.90;;;;;;5065210;28;20072;-79
2022/08/08 06:22:31;;;;;;;11.65;5.80;;;14.80;99.90;;;;;;5065274;28;20041;-80
2022/08/08 06:24:56;;;;;;;8.65;5.18;;;14.80;99.90;;;;;;5065019;28;20430;-80
2022/08/08 06:27:37;;;;;;;7.05;5.45;;;14.80;99.90;;;;;;5067975;28;20041;-81
2022/08/08 06:30:07;;;;;;;9.90;5.60;;;14.90;99.90;;;;;;5065656;28;20486;-80
2022/08/08 06:32:40;;;;;;;12.80;4.88;;;15.00;99.90;;;;;;5066617;28;20398;-81
2022/08/08 06:35:09;;;;;;;8.05;5.78;;;15.00;99.90;;;;;;5060562;28;20131;-82
2022/08/08 06:37:37;;;;;;;7.43;5.25;;;15.20;99.90;;;;;;5057682;28;20041;-79
2022/08/08 06:40:06;;;;;;;10.15;5.90;;;15.30;99.90;;;;;;5063974;28;20041;-80
2022/08/08 06:42:37;;;;;;;13.00;6.93;;;15.50;99.90;;;;;;5067276;28;20434;-79
2022/08/08 06:45:05;;;;;;;8.10;5.53;;;15.50;99.90;;;;;;5063872;28;20090;-82
2022/08/08 06:47:32;;;;;;;10.02;5.45;;;15.60;99.90;;;;;;5061978;28;20076;-79
2022/08/08 06:49:58;;;;;;;8.10;5.05;;;15.80;99.90;;;;;;5063523;28;20044;-76
2022/08/08 06:52:25;;;;;;;12.75;6.75;;;16.00;99.90;;;;;;5053200;28;20036;-75
2022/08/08 06:54:51;;;;;;;5.70;4.68;;;15.90;99.90;;;;;;5064955;28;20044;-75
2022/08/08 06:57:17;;;;;;;7.30;4.68;;;16.00;99.90;;;;;;5061604;28;20037;-78
2022/08/08 06:59:43;;;;;;;7.38;4.93;;;16.20;99.90;;;;;;5064084;28;20046;-73
2022/08/08 07:02:20;;;;;;;6.97;4.93;;;16.30;99.90;;;;;;5057696;28;20058;-75
2022/08/08 07:05:07;;;;;;;8.32;5.57;;;16.50;99.90;;;;;;5046811;28;20487;-74
2022/08/08 07:07:46;;;;;;;10.85;5.25;;;16.60;99.90;;;;;;5041254;28;20048;-74
2022/08/08 07:10:12;;;;;;;7.63;5.55;;;16.90;99.90;;;;;;5064047;28;20070;-75
2022/08/08 07:12:41;;;;;;;13.52;5.97;;;17.50;99.90;;;;;;5063866;28;20094;-73
2022/08/08 07:15:12;;;;;;;5.53;4.90;;;19.00;99.90;;;;;;5059975;28;20578;-73
2022/08/08 07:17:50;;;;;;;6.22;3.95;;;20.40;99.90;;;;;;5060540;28;20052;-74
2022/08/08 07:20:17;;;;;;;4.90;3.40;;;21.50;99.90;;;;;;5066136;28;20438;-74
2022/08/08 07:23:02;;;;;;;3.13;2.25;;;22.10;99.90;;;;;;5063008;28;20106;-74
2022/08/08 07:25:33;;;;;;;5.28;2.03;;;22.60;99.90;;;;;;5065254;28;20174;-74
2022/08/08 07:28:05;;;;;;;5.32;2.00;;;22.90;99.90;;;;;;5060839;28;20125;-74
2022/08/08 07:30:31;;;;;;;6.07;1.52;;;23.20;99.90;;;;;;5065499;28;20044;-75
2022/08/08 07:32:58;;;;;;;3.45;1.42;;;23.60;99.90;;;;;;5062446;28;20094;-76
2022/08/08 07:35:25;;;;;;;4.40;1.00;;;22.30;99.90;;;;;;5059650;28;20045;-76
2022/08/08 07:37:52;;;;;;;3.63;1.13;;;21.40;99.90;;;;;;5075796;28;20121;-74
2022/08/08 07:40:18;;;;;;;3.97;1.58;;;20.50;99.90;;;;;;5036769;28;20052;-77
2022/08/08 07:42:44;;;;;;;1.73;1.00;;;20.20;99.90;;;;;;5060586;28;20392;-75
2022/08/08 07:45:10;;;;;;;8.75;1.38;;;19.80;99.90;;;;;;5064996;28;20052;-76
2022/08/08 07:47:36;;;;;;;3.53;1.52;;;19.60;99.90;;;;;;5061039;28;20053;-77
2022/08/08 07:50:03;;;;;;;2.80;1.02;;;19.80;99.90;;;;;;5062518;28;20098;-76
2022/08/08 07:52:30;;;;;;;3.17;1.08;;;19.90;99.90;;;;;;5064439;28;20136;-75
2022/08/08 07:55:06;;;;;;;2.72;1.10;;;20.00;99.90;;;;;;5061200;28;20508;-76
2022/08/08 07:57:54;;;;;;;3.03;0.88;;;20.10;99.90;;;;;;5062037;28;20056;-74
2022/08/08 08:00:20;;;;;;;2.08;0.80;;;20.10;99.90;;;;;;5064211;28;20048;-76
2022/08/08 08:02:56;;;;;;;2.58;1.52;;;20.00;99.90;;;;;;5063379;28;20043;-76
2022/08/08 08:05:27;;;;;;;5.00;1.30;;;19.70;99.90;;;;;;5061515;28;20028;-76
2022/08/08 08:08:01;;;;;;;5.72;1.35;;;19.60;99.90;;;;;;5057335;28;20232;-76
2022/08/08 08:10:27;;;;;;;2.58;1.33;;;20.10;99.90;;;;;;5061045;28;20063;-76
2022/08/08 08:13:19;;;;;;;2.05;0.82;;;20.20;99.90;;;;;;5058291;28;20386;-76
2022/08/08 08:15:57;;;;;;;3.25;0.80;;;20.20;99.90;;;;;;5070071;28;20116;-76
2022/08/08 08:18:23;;;;;;;1.80;0.88;;;20.20;99.90;;;;;;5066277;28;20036;-76
2022/08/08 08:20:53;;;;;;;3.90;1.27;;;20.70;99.90;;;;;;5064667;28;20056;-76
2022/08/08 08:23:18;;;;;;;10.33;1.57;;;20.90;99.90;;;;;;5065710;28;20351;-72
2022/08/08 08:25:44;;;;;;;2.05;0.80;;;20.80;99.90;;;;;;5066426;28;20044;-76
2022/08/08 08:28:10;;;;;;;1.75;0.85;;;21.00;99.90;;;;;;5057631;28;20033;-76
2022/08/08 08:30:37;;;;;;;3.88;1.15;;;21.20;99.90;;;;;;5063715;28;20041;-76
2022/08/08 08:33:03;;;;;;;3.35;1.15;;;20.90;99.90;;;;;;5061465;28;20044;-76
2022/08/08 08:35:28;;;;;;;3.80;0.88;;;20.90;99.90;;;;;;5067877;28;20078;-76
2022/08/08 08:37:54;;;;;;;2.13;0.50;;;21.00;99.90;;;;;;5065838;28;20125;-74
2022/08/08 08:40:21;;;;;;;1.42;0.35;;;20.60;99.90;;;;;;5062776;28;20044;-77
2022/08/08 08:42:48;;;;;;;2.53;0.80;;;20.30;99.90;;;;;;5063972;28;20530;-76
2022/08/08 08:45:15;;;;;;;2.53;0.80;;;20.20;99.90;;;;;;5066063;28;20091;-77
2022/08/08 08:47:43;;;;;;;2.53;1.45;;;20.00;99.90;;;;;;5062428;28;20109;-76
2022/08/08 08:50:09;;;;;;;4.47;0.65;;;19.80;99.90;;;;;;5066939;28;20044;-76
2022/08/08 08:52:40;;;;;;;1.58;0.60;;;19.80;99.90;;;;;;5065072;28;20541;-77
2022/08/08 08:55:08;;;;;;;3.38;0.60;;;20.00;99.90;;;;;;5064910;28;20418;-77
2022/08/08 08:57:33;;;;;;;3.15;1.20;;;20.10;99.90;;;;;;5065167;28;20056;-77
2022/08/08 09:00:00;;;;;;;4.10;0.63;;;20.20;99.90;;;;;;5062631;28;20249;-77
2022/08/08 09:02:27;;;;;;;2.63;0.80;;;20.40;99.90;;;;;;5061040;28;20040;-78
2022/08/08 09:04:58;;;;;;;4.80;0.80;;;20.40;99.90;;;;;;5056963;28;20067;-78
2022/08/08 09:07:26;;;;;;;5.43;0.98;;;20.50;99.90;;;;;;5060927;28;20514;-78
2022/08/08 09:09:53;;;;;;;1.48;0.60;;;20.60;99.90;;;;;;5056845;28;20052;-77
2022/08/08 09:12:22;;;;;;;3.42;1.15;;;20.60;99.90;;;;;;5062005;28;20040;-78
2022/08/08 09:14:52;;;;;;;3.17;1.00;;;20.60;99.90;;;;;;5067214;28;20105;-77
2022/08/08 09:17:18;;;;;;;2.78;1.08;;;20.60;99.90;;;;;;5064827;28;20210;-76
2022/08/08 09:19:45;;;;;;;4.05;0.60;;;20.50;99.90;;;;;;5081045;28;20044;-78
2022/08/08 09:22:13;;;;;;;15.13;1.75;;;20.50;99.90;;;;;;5066314;28;20044;-80
2022/08/08 09:24:39;;;;;;;4.22;1.00;;;20.50;99.90;;;;;;5066326;28;20063;-81
2022/08/08 09:27:10;;;;;;;2.47;0.60;;;20.40;99.90;;;;;;5065414;28;20045;-79
2022/08/08 09:29:57;;;;;;;1.67;0.65;;;20.40;99.90;;;;;;5058435;28;20047;-78
2022/08/08 09:32:41;;;;;;;1.70;0.65;;;20.20;99.90;;;;;;5054270;28;20040;-78
2022/08/08 09:35:24;;;;;;;3.22;0.55;;;20.20;99.90;;;;;;5059502;28;20040;-76
2022/08/08 09:37:55;;;;;;;3.92;0.98;;;20.10;99.90;;;;;;5065811;28;20530;-78
2022/08/08 09:40:25;;;;;;;2.72;1.27;;;20.20;99.90;;;;;;5064129;28;20044;-79
2022/08/08 09:43:29;;;;;;;3.22;0.70;;;20.00;99.90;;;;;;5062129;28;20422;-78
2022/08/08 09:45:59;;;;;;;4.60;1.60;;;20.00;99.90;;;;;;5066989;28;20154;-80
2022/08/08 09:48:29;;;;;;;1.98;0.65;;;20.00;99.90;;;;;;5061523;28;20059;-78
2022/08/08 09:50:56;;;;;;;;;;;19.90;99.90;;;;;;5060378;28;20052;-77
2022/08/08 09:53:32;;;;;;;5.28;1.48;;;19.80;99.90;;;;;;5074294;28;19920;-78
2022/08/08 09:56:02;;;;;;;2.25;1.45;;;19.80;99.90;;;;;;5072876;28;20067;-82
2022/08/08 09:58:30;;;;;;;4.43;0.60;;;19.80;99.90;;;;;;5070646;28;20048;-78
2022/08/08 10:01:00;;;;;;;3.60;0.98;;;19.80;99.90;;;;;;5063240;28;20049;-77
2022/08/08 10:03:27;;;;;;;;;;;19.70;99.90;;;;;;5050025;28;20131;-77
2022/08/08 10:05:52;;;;;;;4.55;0.82;;;19.70;99.90;;;;;;5063445;28;19921;-75
2022/08/08 10:08:18;;;;;;;3.53;0.88;;;19.70;99.90;;;;;;5063974;28;20578;-70
2022/08/08 10:10:45;;;;;;;3.10;0.85;;;19.70;99.90;;;;;;5049405;28;20076;-75
2022/08/08 10:13:28;;;;;;;2.92;1.13;;;19.70;99.90;;;;;;5063527;28;20045;-75
2022/08/08 10:16:01;;;;;;;5.75;1.15;;;19.60;99.90;;;;;;5064773;28;20091;-74
2022/08/08 10:18:29;;;;;;;10.60;1.10;;;19.70;99.90;;;;;;5065609;28;20145;-75
2022/08/08 10:21:02;;;;;;;3.67;1.27;;;19.60;99.90;;;;;;5062325;28;20045;-76
2022/08/08 10:23:41;;;;;;;3.88;1.10;;;19.60;99.90;;;;;;5065301;28;20128;-76
2022/08/08 10:26:14;;;;;;;4.93;1.10;;;19.60;99.90;;;;;;5065743;28;20044;-75
2022/08/08 10:29:00;;;;;;;4.35;0.93;;;19.60;99.90;;;;;;5063589;28;20067;-77
2022/08/08 10:34:17;;;;;;;4.97;1.88;;;19.60;99.90;;;;;;5064515;28;20049;-75
2022/08/08 10:36:44;;;;;;;2.05;0.98;;;19.60;99.90;;;;;;5066662;28;20056;-75
2022/08/08 10:39:16;;;;;;;6.15;2.05;;;19.60;99.90;;;;;;5064974;28;20048;-76
2022/08/08 10:41:44;;;;;;;4.63;1.48;;;19.60;99.90;;;;;;5064361;28;20409;-77
2022/08/08 10:44:12;;;;;;;3.40;1.40;;;19.70;99.90;;;;;;5064499;28;20044;-76
2022/08/08 10:46:37;;;;;;;4.80;1.10;;;19.70;99.90;;;;;;5064130;28;20048;-76
2022/08/08 10:49:03;;;;;;;4.00;1.02;;;19.70;99.90;;;;;;5064019;28;20690;-75
2022/08/08 10:51:34;;;;;;;5.32;1.25;;;19.70;99.90;;;;;;5064702;28;20062;-75
2022/08/08 10:54:00;;;;;;;6.35;1.70;;;19.60;99.90;;;;;;5065450;28;20097;-76
2022/08/08 10:56:32;;;;;;;2.33;1.08;;;19.70;99.90;;;;;;5064152;28;20410;-75
2022/08/08 10:59:08;;;;;;;4.45;1.50;;;19.80;99.90;;;;;;5066032;28;20491;-76
2022/08/08 11:01:36;;;;;;;3.80;1.10;;;19.90;99.90;;;;;;5060761;28;20041;-76
2022/08/08 11:04:07;;;;;;;3.45;1.13;;;20.00;99.90;;;;;;5065008;28;20040;-76
2022/08/08 11:06:33;;;;;;;;;;;20.10;99.90;;;;;;5064523;28;20493;-77
2022/08/08 11:09:04;;;;;;;3.35;1.30;;;20.10;99.90;;;;;;5063486;28;19920;-78
2022/08/08 11:11:40;;;;;;;4.13;0.93;;;20.30;99.90;;;;;;5059674;28;20427;-77
2022/08/08 11:14:07;;;;;;;4.18;1.38;;;20.50;99.90;;;;;;5062302;28;20161;-77
2022/08/08 11:16:41;;;;;;;3.33;1.08;;;20.40;99.90;;;;;;5065266;28;20037;-78
2022/08/08 11:19:07;;;;;;;3.90;1.73;;;20.70;99.90;;;;;;5064116;28;20051;-79
2022/08/08 11:21:35;;;;;;;5.68;1.63;;;20.90;99.90;;;;;;5068441;28;20040;-85
2022/08/08 11:24:04;;;;;;;3.55;1.00;;;21.00;99.90;;;;;;5069789;28;20448;-86
2022/08/08 11:26:32;;;;;;;3.58;1.30;;;20.90;99.90;;;;;;5066270;28;20051;-86
2022/08/08 11:29:03;;;;;;;1.85;0.80;;;20.80;99.90;;;;;;5066401;28;20095;-86
2022/08/08 11:31:35;;;;;;;3.38;1.20;;;21.00;99.90;;;;;;5065583;28;20127;-84
2022/08/08 11:34:04;;;;;;;2.67;1.00;;;21.00;99.90;;;;;;5060898;28;20048;-76
2022/08/08 11:36:32;;;;;;;3.05;0.98;;;20.90;99.90;;;;;;5064361;28;20135;-75
2022/08/08 11:38:58;;;;;;;5.00;0.90;;;21.10;99.90;;;;;;5063534;28;20040;-76
2022/08/08 11:41:25;;;;;;;2.40;1.00;;;21.00;99.90;;;;;;5046887;28;20045;-76
2022/08/08 11:43:53;;;;;;;2.45;1.33;;;21.00;99.90;;;;;;5060659;28;20048;-76
2022/08/08 11:46:22;;;;;;;4.63;1.05;;;21.10;99.90;;;;;;5062724;28;20036;-73
2022/08/08 11:48:49;;;;;;;4.20;1.48;;;21.20;99.90;;;;;;5064253;28;20135;-76
2022/08/08 11:51:22;;;;;;;4.38;1.23;;;21.20;99.90;;;;;;5066477;28;20037;-76
2022/08/08 11:53:50;;;;;;;4.53;1.48;;;21.20;99.90;;;;;;5063591;28;20044;-74
2022/08/08 11:56:21;;;;;;;3.25;1.00;;;21.10;99.90;;;;;;5025399;28;20068;-74
2022/08/08 11:58:47;;;;;;;2.67;0.80;;;21.20;99.90;;;;;;5055876;28;20036;-74
2022/08/08 12:01:13;;;;;;;3.45;2.45;;;21.20;99.90;;;;;;5059002;28;20123;-75
2022/08/08 12:03:48;;;;;;;2.63;1.10;;;21.00;99.90;;;;;;5051084;28;20040;-75
2022/08/08 12:06:16;;;;;;;2.95;1.08;;;21.00;99.90;;;;;;5059651;28;20120;-75
2022/08/08 12:08:42;;;;;;;4.95;1.27;;;20.80;99.90;;;;;;5062435;28;20040;-76
2022/08/08 12:11:17;;;;;;;3.03;1.10;;;20.70;99.90;;;;;;5065768;28;20467;-75
2022/08/08 12:13:44;;;;;;;2.97;1.00;;;20.80;99.90;;;;;;5064130;28;20403;-75
2022/08/08 12:16:15;;;;;;;2.92;1.35;;;20.70;99.90;;;;;;5062390;28;20410;-77
2022/08/08 12:18:55;;;;;;;3.90;1.67;;;20.80;99.90;;;;;;5064807;28;20054;-75
2022/08/08 12:21:28;;;;;;;2.00;1.15;;;20.80;99.90;;;;;;5053107;28;20036;-74
2022/08/08 12:24:07;;;;;;;4.07;1.30;;;20.80;99.90;;;;;;5064101;28;20045;-74
2022/08/08 12:26:51;;;;;;;4.22;1.65;;;20.80;99.90;;;;;;5059305;28;20417;-75
2022/08/08 12:29:31;;;;;;;3.83;1.20;;;20.90;99.90;;;;;;5062410;28;20044;-74
2022/08/08 12:32:10;;;;;;;1.13;0.80;;;20.90;99.90;;;;;;5064740;28;20116;-82
2022/08/08 12:34:38;;;;;;;4.05;1.10;;;21.00;99.90;;;;;;5072016;28;20044;-82
2022/08/08 12:37:06;;;;;;;4.43;1.35;;;20.90;99.90;;;;;;5070600;28;20495;-81
2022/08/08 12:39:31;;;;;;;4.40;1.35;;;21.00;99.90;;;;;;5065808;28;20060;-81
2022/08/08 12:41:59;;;;;;;4.25;1.73;;;20.90;99.90;;;;;;5065007;28;20138;-77
2022/08/08 12:44:29;;;;;;;6.32;2.95;;;20.90;99.90;;;;;;5064498;28;20040;-81
2022/08/08 12:46:59;;;;;;;5.18;1.00;;;20.90;99.90;;;;;;5060095;28;20088;-80
2022/08/08 12:49:30;;;;;;;4.97;1.25;;;20.90;99.90;;;;;;5062812;28;20123;-79
2022/08/08 12:51:56;;;;;;;4.97;1.17;;;21.00;99.90;;;;;;5063821;28;20725;-79
2022/08/08 12:54:24;;;;;;;4.78;0.95;;;21.10;99.90;;;;;;5063555;28;20044;-80
2022/08/08 12:56:51;;;;;;;6.53;1.55;;;20.90;99.90;;;;;;5062906;28;20037;-79
2022/08/08 12:59:23;;;;;;;2.53;0.90;;;20.90;99.90;;;;;;5061497;28;20429;-77
2022/08/08 13:02:07;;;;;;;2.88;1.33;;;20.90;99.90;;;;;;5067606;28;20063;-80
2022/08/08 13:04:33;;;;;;;4.38;1.00;;;20.90;99.90;;;;;;5068324;28;20044;-78
2022/08/08 13:07:05;;;;;;;3.58;0.80;;;20.80;99.90;;;;;;5067147;28;20040;-78
2022/08/08 13:09:32;;;;;;;2.03;1.00;;;20.70;99.90;;;;;;5063251;28;20032;-78
2022/08/08 13:11:58;;;;;;;5.07;1.00;;;20.60;99.90;;;;;;5068856;28;20457;-78
2022/08/08 13:14:41;;;;;;;2.70;0.70;;;20.50;99.90;;;;;;5067059;28;20123;-78
2022/08/08 13:17:07;;;;;;;1.90;0.98;;;20.50;99.90;;;;;;5063269;28;20055;-77
2022/08/08 13:19:35;;;;;;;3.55;1.00;;;20.50;99.90;;;;;;5065093;28;20407;-78
2022/08/08 13:22:02;;;;;;;5.40;0.80;;;20.50;99.90;;;;;;5068629;28;20122;-81
2022/08/08 13:24:28;;;;;;;1.75;0.93;;;20.50;99.90;;;;;;5067818;28;20380;-78
2022/08/08 13:27:18;;;;;;;5.70;1.08;;;20.50;99.90;;;;;;5068523;28;20544;-75
2022/08/08 13:29:58;;;;;;;3.17;1.15;;;20.60;99.90;;;;;;5064807;28;20411;-79
2022/08/08 13:32:27;;;;;;;1.23;0.70;;;20.70;99.90;;;;;;5064671;28;20040;-81